aviador You're here:

LFMN Decoded Metar

NICE in FRANCE
Report Time2017-11-22 05:00:00
UTC Time2017-11-22 05:13:50
Flight Rules vfr VFR
Wind330° at 12 kt
W.Decomp.*RWY 04: 3.9 kt HW 11.3 kt LCW
W.Rank330° ranks 1
Current wind is above 330° avg. (7.6)
Visibility9999 m
Phenomena:N/A
Clouds:Few 046 Hf
Expected CloudBase > 2,400 ft AGL from Temp-Dew spread
CeilingNone
Temp10°C (ISA -5)
Dew Point04°C (67% RH)
AAT4.4°C
QNH1019 hPa
Density Alt-650 ft
Elevation33 ft
Report Wrong Elevation
Raw Report
METAR LFMN 220500Z 33012KT 9999 FEW046 10/04 Q1019 NOSIG=

Extra information for LFMN:More info

Metar Taf Metar & Taf Last 4 Metars F.Rules Stats Wind Profile Meteogram Temp Stats Airport Information Weather charts Add Link Nearby VenuesMetar ALERT Operation Metar Decoded Social comments